Aérodrome :
LOGIN :

S'inscrire | Disclaimer

   EN    FR    IT 

 










Légende :    VFR   VFR Marginal   IFR   IFR Intensif   IFR Très Intensif
Visi : 
Plafond : 
>= 8 km
>= 3000ft
5 à 8 km
1000 à 3000 ft
1500m à 5 km
500 à 1000 ft
800 à 1500m
200 à 500 ft
< 800m
< 200 ft
Symboles :   Orages  Brouillard  Fortes neiges  Fortes précipitations  Vent > 20 kt
SIGMETs :   Divers  Orages  Givrage  Turbulence  Onde Orograph.  Cendres Volcan.






- Altitude de l'aérodrome : 100 ft


EBDT - Schaffen

DERNIER METAR :
  • 271055Z AUTO VRB02KT 0100 FG OVC002/// 05/05 Q1019 RED

METARs EXPIRÉS :
  • 271025Z AUTO 15004KT 0100 FG OVC002/// 05/05 Q1019 RED
  • 270955Z AUTO 15003KT 0100 FG OVC002/// 05/05 Q1019 RED
  • 270925Z AUTO VRB02KT 0250 FG OVC001/// 05/05 Q1019 RED
  • 270908Z AUTO VRB02KT 1100 BR BKN001/// OVC003/// 05/05 Q1019 RED
  • 270855Z AUTO 11003KT 1200 BR BKN002/// 05/05 Q1019 AMB
  • 270848Z AUTO VRB02KT 2200 BR BKN002/// 05/05 Q1019 AMB
  • 270825Z AUTO VRB01KT 3700 BR SCT003/// BKN005/// OVC032/// 06/05 Q1019 YLO
  • 270755Z AUTO VRB01KT 2700 BR OVC005/// 05/05 Q1019 YLO

Prévision TAF périmée.



MET'MAP, la Météo Aéronautique d'un coup d'oeil ! - Copyright ORBIFLY Décembre 2007 - Disclaimer

ORBIFLY MET'MAP TEAM :

Programmation & Développement : Alexandra Zaïnal
Sur une idée originale de : Baudouin d'Aumeries
Assistance à la programmation : Marc-Olivier Méhu
Soutien technique & logistique : Manuel Goepfert

Contact : metmap@orbifly.com




SOURCES & CREDITS :

   NOAA